Davis Junction, IL (61020)

11:23 AM CDT on August 21, 2014 (GMT -0500)
Highland Elementary | Change Station
CLOSE
Current Station
Personal Weather Station
Location: Stillman Valley, IL
Elevation: 755 ft
Nearby Weather Stations

Elev 755 ft 42.10 °N, 89.18 °W | Updated 2 minutes ago

Thunderstorm
Thunderstorm
73.4 °F
Feels Like 73.4 °F
N
2.0
Wind Variable Wind from SSE
Gusts 6.0 mph

Today
High -- | Low -- °F
--% Chance of Precip.
Yesterday
High -- | Low -- °F
Precip. -- in
6:10 AM 7:47 PM
Waning Crescent, 13% visible
Pressure 29.95 in
Visibility 10.0 miles
Clouds Few 1200 ft
Scattered Clouds 6000 ft
Scattered Clouds 8000 ft
Overcast 15000 ft
Dew Point 72 °F
Humidity 96%
Rainfall 1.43 in
Snow Depth Not available.
UV 2 out of 12
Pollen 6.30 out of 12
Ozone Good
PM2.5 Good
Flu Activity Not available.
METAR KRFD 211554Z 20007KT 10SM TS FEW012 SCT060CB SCT080 OVC150 24/22 A2996 RMK AO2 RAB00E10 TSE1458B19 SLP140 FRQ LTGICCG VC N TS VC N MOV E P0000 T02390217

More Conditions Fewer Conditions

Pressure 29.95 in
Visibility 10.0 miles
Clouds Few 1200 ft
Scattered Clouds 6000 ft
Scattered Clouds 8000 ft
Overcast 15000 ft
Dew Point 72 °F
Humidity 96%
Rainfall 1.43 in
Snow Depth Not available.
UV 2 out of 12
Pollen 6.30 out of 12
Ozone Good
PM2.5 Good
Flu Activity Not available.
METAR KRFD 211554Z 20007KT 10SM TS FEW012 SCT060CB SCT080 OVC150 24/22 A2996 RMK AO2 RAB00E10 TSE1458B19 SLP140 FRQ LTGICCG VC N TS VC N MOV E P0000 T02390217

More Conditions Fewer Conditions

10-Day Weather Forecast

Almanac

Astronomy

Aug. 21, 2014 Rise Set
Actual Time 6:10 AM CDT 7:47 PM CDT
Civil Twilight 5:40 AM CDT 8:17 PM CDT
Nautical Twilight 5:04 AM CDT 8:53 PM CDT
Astronomical Twilight 4:26 AM CDT 9:31 PM CDT
Moon 2:38 AM CDT 5:18 PM CDT
Length of Visible Light 14h 36m
Length of Day
13h 37m
Tomorrow will be 2m 36s shorter.
Waning Crescent, 13% of the Moon is Illuminated
Today
Waning Crescent
Aug 25
New
Sep 2
First Quarter
Sep 8
Full
Sep 15
Last Quarter

Today's Extremes

State Highs State Lows

Community

WunderPhotos

Upload Photos

1,745,955 photos uploaded!

Nearby

Air Quality

  Air Quality AQ Index Pollutant
Yesterday Good
OZONE
Yesterday Good
PM2.5
Current Good
PM2.5
Current Good
OZONE
Thursday Moderate
PM2.5
Thursday Good
OZONE

Snow Depth

Station Depth Elevation
No new snow has been reported.

Earthquake Activity

City Distance Mag. Time & Date
No recent earthquake activity has been reported nearby.
Minimum magnitude displayed is 2.5.

Coastal Water Temperatures

Place Temperature
No Stations Reporting

Nearby Weather Stations